Punta Gorda, FL

5:44 PM EDT on September 01, 2014 (GMT -0400)
Gulf Cove, Fl | Change Station
CLOSE
Current Station
Personal Weather Station
Location: Port Charlotte, FL
Elevation: 20 ft
Nearby Weather Stations
Active Advisory: Special Statement

Elev 20 ft 26.95 °N, 82.24 °W | Updated 13 minutes ago

Thunderstorm
Thunderstorm
82.4 °F
Feels Like 94 °F
N
4.0
Wind Variable Wind from West

Today
High -- | Low -- °F
--% Chance of Precip.
Yesterday
High -- | Low -- °F
Precip. -- in
7:08 AM 7:48 PM
Waxing Crescent, 44% visible
Pressure 30.04 in
Visibility 10.0 miles
Clouds Few 5500 ft
Heat Index 94 °F
Dew Point 81 °F
Humidity 95%
Rainfall 0.07 in
Snow Depth Not available.
UV 6 out of 12
Pollen 5.20 out of 12
Air Quality Not available.
Flu Activity Not available.
METAR KPGD 012053Z AUTO 35006KT 10SM VCTS FEW055 31/23 A3004 RMK AO2 LTG DSNT N AND S AND SW RAB09E23 SLP173 P0000 60000 T03110228 55018

More Conditions Fewer Conditions

Pressure 30.04 in
Visibility 10.0 miles
Clouds Few 5500 ft
Heat Index 94 °F
Dew Point 81 °F
Humidity 95%
Rainfall 0.07 in
Snow Depth Not available.
UV 6 out of 12
Pollen 5.20 out of 12
Air Quality Not available.
Flu Activity Not available.
METAR KPGD 012053Z AUTO 35006KT 10SM VCTS FEW055 31/23 A3004 RMK AO2 LTG DSNT N AND S AND SW RAB09E23 SLP173 P0000 60000 T03110228 55018

More Conditions Fewer Conditions

10-Day Weather Forecast

Almanac

Astronomy

Sep. 01, 2014 Rise Set
Actual Time 7:08 AM EDT 7:48 PM EDT
Civil Twilight 6:44 AM EDT 8:12 PM EDT
Nautical Twilight 6:16 AM EDT 8:40 PM EDT
Astronomical Twilight 5:48 AM EDT 9:08 PM EDT
Moon 1:16 PM EDT No Moon Set
Length of Visible Light 13h 27m
Length of Day
12h 40m
Tomorrow will be 1m 32s shorter.
Waxing Crescent, 44% of the Moon is Illuminated
Today
Waxing Crescent
Sep 2
First Quarter
Sep 8
Full
Sep 15
Last Quarter
Sep 24
New

Today's Extremes

State Highs State Lows

Community

WunderPhotos

Upload Photos

1,749,417 photos uploaded!

WunderBlogs® & News

Nearby

Snow Depth

Station Depth Elevation
No new snow has been reported.

Earthquake Activity

City Distance Mag. Time & Date
No recent earthquake activity has been reported nearby.
Minimum magnitude displayed is 2.5.

Coastal Water Temperatures

Place Temperature
No Stations Reporting

Nearby Weather Stations